Terminal Aerodrome Forecast
Issued by NWS Louisville, KY

Home | Current Version | Previous Version | Text Only | Print | Product List | Glossary On
Versions: 1 2 3 4 5 6 7 8 9 10 11 12 13 14
000
FTUS43 KLMK 252300
TAFLEX
TAF
KLEX 252325Z 2600/2624 05006KT P6SM BKN150
     FM261000 03007KT P6SM BKN018 BKN150
     FM261500 35008KT P6SM VCSH OVC012=

USA.gov is the U.S. government's official web portal to all federal, state and local government web resources and services.